Time;durP1;ratioP1;P1;durP2;ratioP2;P2;SDS_P1;SDS_P2;PMS_P1;PMS_P2;Temp;Humidity;BMP_temperature;BMP_pressure;BME280_temperature;BME280_humidity;BME280_pressure;Samples;Min_cycle;Max_cycle;Signal;HPM_P1;HPM_P2
2022/01/12 00:00:28;;;;;;;17.92;10.95;;;4.50;99.90;;;;;;5031116;28;20021;-86
2022/01/12 00:02:54;;;;;;;20.05;10.80;;;4.40;99.90;;;;;;5030938;28;20028;-86
2022/01/12 00:05:20;;;;;;;16.77;9.90;;;4.40;99.90;;;;;;5029675;28;20021;-86
2022/01/12 00:07:49;;;;;;;15.15;9.48;;;4.40;99.90;;;;;;5029178;28;20025;-86
2022/01/12 00:10:17;;;;;;;14.23;9.18;;;4.40;99.90;;;;;;5030354;28;20345;-86
2022/01/12 00:12:42;;;;;;;14.80;9.20;;;4.40;99.90;;;;;;5029217;28;20038;-86
2022/01/12 00:15:08;;;;;;;16.25;9.52;;;4.40;99.90;;;;;;5029220;28;20034;-86
2022/01/12 00:17:34;;;;;;;12.63;8.85;;;4.40;99.90;;;;;;5028836;28;20314;-86
2022/01/12 00:20:00;;;;;;;14.88;9.20;;;4.30;99.90;;;;;;5029397;28;20640;-86
2022/01/12 00:22:27;;;;;;;15.40;9.80;;;4.40;99.90;;;;;;5030302;28;20513;-86
2022/01/12 00:35:34;;;;;;;15.50;8.98;;;4.20;99.90;;;;;;5030625;28;20471;-86
2022/01/12 00:37:59;;;;;;;17.83;10.20;;;4.20;99.90;;;;;;5030218;28;20018;-86
2022/01/12 00:40:25;;;;;;;16.70;10.50;;;4.20;99.90;;;;;;5030340;28;20445;-86
2022/01/12 00:42:51;;;;;;;21.38;11.73;;;4.20;99.90;;;;;;5030173;28;20481;-86
2022/01/12 00:45:18;;;;;;;17.48;9.05;;;4.20;99.90;;;;;;5028909;28;20021;-85
2022/01/12 00:47:43;;;;;;;15.82;10.02;;;4.20;99.90;;;;;;5030126;28;20547;-86
2022/01/12 00:50:10;;;;;;;14.10;9.13;;;4.20;99.90;;;;;;5030050;28;20025;-86
2022/01/12 00:52:35;;;;;;;18.95;9.43;;;4.20;99.90;;;;;;5029714;28;20033;-86
2022/01/12 00:55:02;;;;;;;13.60;8.45;;;4.20;99.90;;;;;;5028548;28;20513;-86
2022/01/12 00:57:27;;;;;;;16.20;9.73;;;4.20;99.90;;;;;;5030036;28;20498;-86
2022/01/12 00:59:53;;;;;;;16.85;9.02;;;4.20;99.90;;;;;;5030041;28;20032;-86
2022/01/12 01:02:19;;;;;;;14.23;8.73;;;4.20;99.90;;;;;;5028712;28;20037;-86
2022/01/12 01:04:44;;;;;;;16.48;9.13;;;4.10;99.90;;;;;;5030129;28;20075;-86
2022/01/12 01:07:10;;;;;;;16.27;9.15;;;4.00;99.90;;;;;;5029803;28;20029;-86
2022/01/12 01:09:40;;;;;;;15.38;9.00;;;4.00;99.90;;;;;;5029738;28;20028;-86
2022/01/12 01:12:07;;;;;;;16.35;9.27;;;3.90;99.90;;;;;;5029658;28;20033;-86
2022/01/12 01:15:01;;;;;;;15.70;9.23;;;3.90;99.90;;;;;;5029564;28;20029;-86
2022/01/12 01:25:38;;;;;;;16.00;9.30;;;4.20;99.90;;;;;;5029761;28;20473;-86
2022/01/12 01:28:05;;;;;;;15.05;8.90;;;4.10;99.90;;;;;;5029751;28;20029;-86
2022/01/12 01:30:35;;;;;;;16.40;9.15;;;4.10;99.90;;;;;;5029496;28;20406;-86
2022/01/12 01:33:05;;;;;;;15.55;9.52;;;4.10;99.90;;;;;;5029340;28;20135;-86
2022/01/12 01:35:43;;;;;;;14.95;10.30;;;4.10;99.90;;;;;;5028202;28;20021;-86
2022/01/12 01:38:09;;;;;;;14.68;9.23;;;4.10;99.90;;;;;;5029401;28;20035;-86
2022/01/12 01:40:37;;;;;;;18.08;10.57;;;4.00;99.90;;;;;;5028343;28;20029;-86
2022/01/12 01:43:15;;;;;;;16.90;9.32;;;3.90;99.90;;;;;;5023138;28;20036;-86
2022/01/12 01:53:54;;;;;;;17.95;9.75;;;3.80;99.90;;;;;;5029829;28;20099;-86
2022/01/12 01:56:21;;;;;;;17.17;9.68;;;3.70;99.90;;;;;;5029504;28;20080;-86
2022/01/12 01:58:47;;;;;;;14.82;9.02;;;3.70;99.90;;;;;;5029501;28;20036;-86
2022/01/12 02:01:13;;;;;;;18.45;9.73;;;3.80;99.90;;;;;;5029132;28;20033;-86
2022/01/12 02:03:41;;;;;;;16.23;9.23;;;3.80;99.90;;;;;;5028084;28;20033;-86
2022/01/12 02:06:07;;;;;;;15.43;9.90;;;3.70;99.90;;;;;;5029020;28;20486;-86
2022/01/12 02:08:35;;;;;;;14.20;9.40;;;3.70;99.90;;;;;;5028048;28;20478;-86
2022/01/12 02:11:02;;;;;;;13.85;8.48;;;3.60;99.90;;;;;;5029159;28;20017;-86
2022/01/12 02:13:29;;;;;;;14.48;8.73;;;3.60;99.90;;;;;;5029113;28;20092;-86
2022/01/12 02:15:57;;;;;;;13.55;8.07;;;3.60;99.90;;;;;;5029396;28;20036;-86
2022/01/12 02:40:38;;;;;;;16.17;9.43;;;3.70;99.90;;;;;;5032704;28;20022;-86
2022/01/12 02:51:30;;;;;;;16.70;9.57;;;3.60;99.90;;;;;;5031966;28;20088;-86
2022/01/12 02:53:56;;;;;;;16.65;9.02;;;3.70;99.90;;;;;;5027611;28;20021;-87
2022/01/12 02:56:28;;;;;;;19.42;8.48;;;3.70;99.90;;;;;;5032420;28;20103;-86
2022/01/12 02:58:56;;;;;;;14.98;9.35;;;3.70;99.90;;;;;;5033752;28;20032;-86
2022/01/12 03:04:04;;;;;;;14.52;9.55;;;3.60;99.90;;;;;;5032365;28;20061;-86
2022/01/12 03:06:35;;;;;;;16.48;9.18;;;3.70;99.90;;;;;;5030576;28;20025;-87
2022/01/12 03:09:01;;;;;;;18.48;9.80;;;3.60;99.90;;;;;;5032287;28;20021;-87
2022/01/12 03:11:28;;;;;;;14.10;8.73;;;3.60;99.90;;;;;;5032059;28;20028;-86
2022/01/12 03:13:54;;;;;;;15.73;10.00;;;3.60;99.90;;;;;;5030449;28;20075;-86
2022/01/12 03:16:22;;;;;;;14.43;9.60;;;3.50;99.90;;;;;;5032036;28;20021;-86
2022/01/12 03:18:56;;;;;;;16.27;10.88;;;3.50;99.90;;;;;;5031955;28;20175;-86
2022/01/12 03:21:33;;;;;;;16.27;10.13;;;3.50;99.90;;;;;;5030360;28;20521;-86
2022/01/12 03:24:00;;;;;;;16.70;10.18;;;3.50;99.90;;;;;;5031592;28;20029;-86
2022/01/12 03:26:29;;;;;;;16.90;10.07;;;3.50;99.90;;;;;;5030620;28;20654;-86
2022/01/12 03:28:56;;;;;;;17.48;11.27;;;3.40;99.90;;;;;;5032030;28;20052;-86
2022/01/12 03:31:24;;;;;;;18.23;10.52;;;3.40;99.90;;;;;;5031458;28;20413;-86
2022/01/12 03:33:58;;;;;;;16.77;10.50;;;3.40;99.90;;;;;;5030062;28;20095;-86
2022/01/12 03:36:39;;;;;;;17.63;10.68;;;3.30;99.90;;;;;;5030014;28;20648;-86
2022/01/12 03:39:11;;;;;;;16.13;9.70;;;3.40;99.90;;;;;;5031602;28;20498;-86
2022/01/12 03:41:37;;;;;;;17.65;10.25;;;3.40;99.90;;;;;;5031617;28;20299;-86
2022/01/12 03:44:07;;;;;;;16.88;10.45;;;3.40;99.90;;;;;;5031618;28;20026;-86
2022/01/12 03:46:38;;;;;;;17.05;11.20;;;3.40;99.90;;;;;;5029940;28;20120;-86
2022/01/12 03:49:04;;;;;;;23.00;10.95;;;3.30;99.90;;;;;;5031309;28;20026;-86
2022/01/12 03:51:30;;;;;;;19.25;10.73;;;3.20;99.90;;;;;;5029465;28;20029;-86
2022/01/12 03:53:55;;;;;;;17.23;9.75;;;3.30;99.90;;;;;;5031280;28;20101;-86
2022/01/12 03:56:21;;;;;;;18.20;9.98;;;3.30;99.90;;;;;;5031057;28;20017;-86
2022/01/12 03:58:47;;;;;;;16.90;10.30;;;3.40;99.90;;;;;;5029892;28;20021;-86
2022/01/12 04:01:13;;;;;;;22.75;11.23;;;3.30;99.90;;;;;;5031279;28;20410;-87
2022/01/12 04:03:43;;;;;;;15.32;9.68;;;3.30;99.90;;;;;;5031296;28;20037;-86
2022/01/12 04:08:53;;;;;;;14.93;9.48;;;3.30;99.90;;;;;;5031411;28;20052;-86
2022/01/12 04:11:19;;;;;;;14.15;9.43;;;3.30;99.90;;;;;;5029470;28;20112;-86
2022/01/12 04:13:48;;;;;;;15.32;9.52;;;3.30;99.90;;;;;;5029499;28;20033;-86
2022/01/12 04:16:13;;;;;;;15.63;9.77;;;3.30;99.90;;;;;;5030804;28;20076;-88
2022/01/12 04:18:39;;;;;;;15.70;9.65;;;3.30;99.90;;;;;;5030915;28;20432;-86
2022/01/12 04:21:08;;;;;;;19.42;10.30;;;3.30;99.90;;;;;;5030419;28;20072;-87
2022/01/12 04:23:36;;;;;;;17.00;10.05;;;3.30;99.90;;;;;;5030907;28;20644;-86
2022/01/12 04:26:10;;;;;;;16.83;10.57;;;3.10;99.90;;;;;;5030789;28;20033;-87
2022/01/12 04:28:41;;;;;;;15.88;10.43;;;3.10;99.90;;;;;;5030686;28;20025;-86
2022/01/12 04:31:07;;;;;;;19.23;11.45;;;3.00;99.90;;;;;;5030678;28;20075;-86
2022/01/12 04:33:35;;;;;;;17.92;9.82;;;3.00;99.90;;;;;;5030158;28;20446;-86
2022/01/12 04:36:01;;;;;;;17.25;10.35;;;3.10;99.90;;;;;;5028714;28;20034;-86
2022/01/12 04:38:30;;;;;;;15.48;9.38;;;3.10;99.90;;;;;;5029155;28;20506;-86
2022/01/12 04:40:56;;;;;;;15.93;9.80;;;3.10;99.90;;;;;;5030629;28;20524;-86
2022/01/12 04:43:24;;;;;;;19.33;9.95;;;3.20;99.90;;;;;;5030533;28;20025;-86
2022/01/12 04:50:46;;;;;;;13.35;9.13;;;3.10;99.90;;;;;;5030247;28;20027;-86
2022/01/12 04:53:13;;;;;;;14.40;9.18;;;3.10;99.90;;;;;;5028977;28;20033;-87
2022/01/12 04:55:39;;;;;;;15.10;9.00;;;3.20;99.90;;;;;;5030136;28;20533;-86
2022/01/12 04:58:06;;;;;;;14.07;8.50;;;3.20;99.90;;;;;;5028574;28;20084;-86
2022/01/12 05:00:33;;;;;;;15.05;9.50;;;3.20;99.90;;;;;;5028794;28;20022;-86
2022/01/12 05:13:41;;;;;;;18.15;9.02;;;3.10;99.90;;;;;;5029751;28;20608;-85
2022/01/12 05:16:10;;;;;;;15.70;9.25;;;3.00;99.90;;;;;;5030037;28;20095;-85
2022/01/12 05:18:36;;;;;;;18.92;9.60;;;3.00;99.90;;;;;;5028603;28;20430;-87
2022/01/12 05:21:03;;;;;;;16.90;9.30;;;3.00;99.90;;;;;;5029552;28;20072;-85
2022/01/12 05:23:29;;;;;;;16.27;10.05;;;2.90;99.90;;;;;;5028589;28;20566;-85
2022/01/12 05:25:55;;;;;;;20.55;10.38;;;2.90;99.90;;;;;;5029979;28;20090;-85
2022/01/12 05:28:22;;;;;;;17.80;9.98;;;2.90;99.90;;;;;;5028563;28;20029;-85
2022/01/12 05:30:48;;;;;;;15.55;9.48;;;2.80;99.90;;;;;;5029726;28;20025;-85
2022/01/12 05:33:15;;;;;;;17.90;9.25;;;2.80;99.90;;;;;;5029412;28;20066;-85
2022/01/12 05:35:42;;;;;;;19.10;10.20;;;2.70;99.90;;;;;;5029175;28;20453;-85
2022/01/12 05:38:09;;;;;;;17.27;9.57;;;2.70;99.90;;;;;;5038458;28;20033;-85
2022/01/12 05:40:35;;;;;;;16.20;9.57;;;2.60;99.90;;;;;;5022031;28;20045;-85
2022/01/12 05:43:02;;;;;;;16.48;10.55;;;2.60;99.90;;;;;;5029475;28;20108;-84
2022/01/12 05:45:31;;;;;;;17.58;10.25;;;2.60;99.90;;;;;;5028238;28;20497;-85
2022/01/12 05:50:24;;;;;;;19.45;10.18;;;2.60;99.90;;;;;;5029500;28;20112;-85
2022/01/12 05:52:50;;;;;;;17.42;9.93;;;2.60;99.90;;;;;;5029324;28;20037;-85
2022/01/12 05:55:16;;;;;;;17.60;10.27;;;2.50;99.90;;;;;;5029555;28;20021;-85
2022/01/12 05:57:42;;;;;;;17.33;10.80;;;2.40;99.90;;;;;;5029497;28;20026;-85
2022/01/12 06:00:11;;;;;;;19.90;11.35;;;2.40;99.90;;;;;;5028193;28;20025;-85
2022/01/12 06:02:36;;;;;;;19.85;11.80;;;2.30;99.90;;;;;;5029422;28;20025;-85
2022/01/12 06:05:03;;;;;;;18.20;11.45;;;2.30;99.90;;;;;;5028201;28;20026;-85
2022/01/12 06:07:29;;;;;;;21.98;11.65;;;2.30;99.90;;;;;;5027747;28;20464;-85
2022/01/12 06:09:55;;;;;;;24.65;12.77;;;2.30;99.90;;;;;;5032506;28;20032;-85
2022/01/12 06:12:21;;;;;;;21.20;11.25;;;2.30;99.90;;;;;;5033250;28;20045;-85
2022/01/12 06:14:47;;;;;;;24.23;12.02;;;2.30;99.90;;;;;;5032884;28;20524;-85
2022/01/12 06:17:13;;;;;;;23.02;13.07;;;2.30;99.90;;;;;;5031680;28;20021;-85
2022/01/12 06:19:39;;;;;;;21.90;12.75;;;2.30;99.90;;;;;;5033030;28;20028;-85
2022/01/12 06:22:06;;;;;;;22.63;13.20;;;2.20;99.90;;;;;;5032650;28;20032;-84
2022/01/12 06:24:32;;;;;;;27.17;14.02;;;2.20;99.90;;;;;;5033146;28;20044;-85
2022/01/12 06:26:58;;;;;;;25.75;13.20;;;2.20;99.90;;;;;;5031753;28;20123;-85
2022/01/12 06:29:39;;;;;;;23.05;13.10;;;2.10;99.90;;;;;;5032861;28;20470;-85
2022/01/12 06:32:06;;;;;;;25.55;14.13;;;2.00;99.90;;;;;;5032767;28;20033;-85
2022/01/12 06:34:32;;;;;;;27.02;14.80;;;2.00;99.90;;;;;;5032608;28;20784;-85
2022/01/12 06:36:58;;;;;;;25.48;14.75;;;1.80;99.90;;;;;;5032305;28;20068;-85
2022/01/12 06:39:25;;;;;;;31.08;15.43;;;1.80;99.90;;;;;;5031512;28;20029;-84
2022/01/12 06:41:52;;;;;;;30.38;17.52;;;1.80;99.90;;;;;;5032818;28;20052;-85
2022/01/12 06:44:20;;;;;;;34.90;17.25;;;1.80;99.90;;;;;;5032626;28;20037;-87
2022/01/12 06:46:48;;;;;;;29.67;16.05;;;1.80;99.90;;;;;;5031647;28;20543;-84
2022/01/12 06:49:16;;;;;;;26.60;14.48;;;1.80;99.90;;;;;;5032635;28;20510;-85
2022/01/12 06:51:45;;;;;;;29.90;16.15;;;1.70;99.90;;;;;;5030898;28;20490;-85
2022/01/12 06:54:12;;;;;;;25.70;15.15;;;1.80;99.90;;;;;;5032393;28;20017;-85
2022/01/12 06:56:39;;;;;;;31.63;15.57;;;1.70;99.90;;;;;;5032404;28;20071;-85
2022/01/12 06:59:05;;;;;;;27.60;15.57;;;1.80;99.90;;;;;;5034630;28;20036;-85
2022/01/12 07:01:32;;;;;;;28.45;15.95;;;1.70;99.90;;;;;;5037102;28;20029;-85
2022/01/12 07:03:58;;;;;;;28.83;17.30;;;1.60;99.90;;;;;;5033726;28;20025;-87
2022/01/12 07:06:24;;;;;;;26.85;15.77;;;1.60;99.90;;;;;;5029999;28;20021;-85
2022/01/12 07:08:51;;;;;;;30.17;16.83;;;1.60;99.90;;;;;;5031864;28;20470;-85
2022/01/12 07:11:17;;;;;;;32.65;17.20;;;1.60;99.90;;;;;;5031554;28;20023;-85
2022/01/12 07:13:43;;;;;;;30.80;17.30;;;1.60;99.90;;;;;;5031181;28;20049;-85
2022/01/12 07:16:09;;;;;;;34.47;18.63;;;1.60;99.90;;;;;;5031168;28;20010;-84
2022/01/12 07:18:35;;;;;;;29.10;16.75;;;1.60;99.90;;;;;;5030202;28;20024;-85
2022/01/12 07:21:00;;;;;;;33.13;18.25;;;1.60;99.90;;;;;;5031006;28;20049;-85
2022/01/12 07:23:27;;;;;;;32.10;17.38;;;1.50;99.90;;;;;;5030163;28;20017;-85
2022/01/12 07:25:54;;;;;;;34.08;18.83;;;1.40;99.90;;;;;;5031394;28;20420;-88
2022/01/12 07:28:21;;;;;;;37.53;19.23;;;1.40;99.90;;;;;;5031972;28;20052;-88
2022/01/12 07:30:47;;;;;;;33.75;18.45;;;1.40;99.90;;;;;;5032004;28;20043;-88
2022/01/12 07:33:13;;;;;;;32.00;18.15;;;1.40;99.90;;;;;;5031431;28;20566;-88
2022/01/12 07:35:40;;;;;;;32.40;17.90;;;1.40;99.90;;;;;;5025258;28;20025;-88
2022/01/12 07:38:06;;;;;;;32.25;17.98;;;1.30;99.90;;;;;;5024096;28;20508;-88
2022/01/12 07:40:35;;;;;;;34.83;17.05;;;1.30;99.90;;;;;;5032372;28;20022;-89
2022/01/12 07:43:05;;;;;;;34.03;17.10;;;1.30;99.90;;;;;;5031926;28;20061;-89
2022/01/12 07:45:31;;;;;;;32.67;15.77;;;1.30;99.90;;;;;;5025503;28;20096;-89
2022/01/12 07:47:57;;;;;;;31.67;16.85;;;1.30;99.90;;;;;;5031985;28;20083;-89
2022/01/12 07:50:23;;;;;;;28.42;15.93;;;1.30;99.90;;;;;;5032699;28;20494;-89
2022/01/12 07:52:53;;;;;;;35.28;16.83;;;1.20;99.90;;;;;;5029954;28;20057;-86
2022/01/12 07:55:23;;;;;;;30.48;16.75;;;1.20;99.90;;;;;;5030032;28;20669;-86
2022/01/12 07:57:50;;;;;;;34.67;16.55;;;1.10;99.90;;;;;;5021520;28;20291;-87
2022/01/12 08:00:16;;;;;;;33.45;17.05;;;1.10;99.90;;;;;;5030249;28;20024;-87
2022/01/12 08:02:42;;;;;;;32.30;16.20;;;1.20;99.90;;;;;;5029331;28;20025;-86
2022/01/12 08:05:09;;;;;;;29.83;17.35;;;1.10;99.90;;;;;;5031030;28;20386;-87
2022/01/12 08:07:35;;;;;;;39.28;16.95;;;1.20;99.90;;;;;;5029089;28;20030;-86
2022/01/12 08:10:05;;;;;;;33.55;17.45;;;1.20;99.90;;;;;;5030433;28;20152;-87
2022/01/12 08:12:31;;;;;;;28.55;16.30;;;1.20;99.90;;;;;;5030702;28;20120;-86
2022/01/12 08:14:57;;;;;;;34.63;16.88;;;1.30;99.90;;;;;;5029781;28;20518;-86
2022/01/12 08:17:23;;;;;;;32.17;17.23;;;1.30;99.90;;;;;;5023645;28;20211;-86
2022/01/12 08:19:51;;;;;;;31.98;17.77;;;1.40;99.90;;;;;;5028757;28;20037;-86
2022/01/12 08:22:16;;;;;;;30.27;15.98;;;1.40;99.90;;;;;;5029978;28;20155;-87
2022/01/12 08:24:42;;;;;;;32.53;17.85;;;1.30;99.90;;;;;;5030136;28;20104;-86
2022/01/12 08:27:08;;;;;;;28.40;15.20;;;1.30;99.90;;;;;;5028510;28;20514;-86
2022/01/12 08:29:34;;;;;;;28.00;14.68;;;1.30;99.90;;;;;;5029528;28;20478;-86
2022/01/12 08:32:00;;;;;;;27.98;15.15;;;1.30;99.90;;;;;;5029251;28;20272;-86
2022/01/12 08:34:26;;;;;;;28.27;15.90;;;1.30;99.90;;;;;;5030565;28;20610;-86
2022/01/12 08:36:52;;;;;;;30.65;16.25;;;1.40;99.90;;;;;;5028902;28;20516;-91
2022/01/12 08:39:17;;;;;;;30.88;15.95;;;1.40;99.90;;;;;;5040063;28;20009;-90
2022/01/12 08:41:44;;;;;;;26.98;15.27;;;1.40;99.90;;;;;;5037585;28;20034;-88
2022/01/12 08:44:09;;;;;;;32.10;15.73;;;1.40;99.90;;;;;;5036475;28;20101;-88
2022/01/12 08:46:38;;;;;;;35.00;16.77;;;1.50;99.90;;;;;;5037066;28;20033;-89
2022/01/12 08:49:04;;;;;;;27.85;14.68;;;1.40;99.90;;;;;;5035212;28;20029;-89
2022/01/12 08:51:30;;;;;;;27.48;14.57;;;1.40;99.90;;;;;;5029851;28;20075;-83
2022/01/12 08:53:55;;;;;;;26.75;14.63;;;1.50;99.90;;;;;;5028494;28;20033;-85
2022/01/12 08:56:21;;;;;;;23.20;13.43;;;1.50;99.90;;;;;;5029902;28;20026;-86
2022/01/12 08:58:48;;;;;;;22.95;13.45;;;1.50;99.90;;;;;;5029245;28;20028;-85
2022/01/12 09:01:14;;;;;;;26.17;15.10;;;1.60;99.90;;;;;;5028981;28;20025;-92
2022/01/12 09:03:40;;;;;;;24.60;14.00;;;1.60;99.90;;;;;;5028103;28;20067;-85
2022/01/12 09:06:06;;;;;;;23.42;13.77;;;1.70;99.90;;;;;;5029336;28;20029;-86
2022/01/12 09:08:34;;;;;;;27.90;14.63;;;1.60;99.90;;;;;;5028038;28;20032;-85
2022/01/12 09:11:00;;;;;;;22.58;14.02;;;1.60;99.90;;;;;;5022670;28;20033;-86
2022/01/12 09:13:26;;;;;;;25.50;14.63;;;1.80;99.90;;;;;;5028650;28;20597;-86
2022/01/12 09:15:51;;;;;;;27.75;14.93;;;1.80;99.90;;;;;;5031196;28;20287;-86
2022/01/12 09:18:18;;;;;;;28.35;15.73;;;1.80;99.90;;;;;;5033392;28;20029;-87
2022/01/12 09:20:45;;;;;;;25.73;15.18;;;1.90;99.90;;;;;;5032102;28;20255;-87
2022/01/12 09:23:11;;;;;;;25.77;14.63;;;1.90;99.90;;;;;;5029565;28;20076;-85
2022/01/12 09:25:39;;;;;;;23.95;14.32;;;2.00;99.90;;;;;;5035063;28;20107;-86
2022/01/12 09:28:06;;;;;;;27.08;14.90;;;2.00;99.90;;;;;;5038934;28;20127;-86
2022/01/12 09:30:32;;;;;;;23.33;13.65;;;2.10;99.90;;;;;;5035832;28;20025;-86
2022/01/12 09:32:59;;;;;;;24.60;13.30;;;2.00;99.90;;;;;;5034256;28;20041;-86
2022/01/12 09:35:25;;;;;;;23.17;13.32;;;2.10;99.90;;;;;;5034891;28;20021;-86
2022/01/12 09:37:51;;;;;;;25.52;14.45;;;2.10;99.90;;;;;;5025876;28;20036;-86
2022/01/12 09:40:17;;;;;;;22.65;13.35;;;2.20;99.90;;;;;;5032908;28;20014;-87
2022/01/12 09:42:44;;;;;;;25.65;13.90;;;2.20;99.90;;;;;;5032289;28;20514;-86
2022/01/12 09:45:15;;;;;;;24.58;13.98;;;2.30;99.90;;;;;;5034861;28;20133;-86
2022/01/12 09:47:42;;;;;;;22.73;13.40;;;2.30;99.90;;;;;;5036850;28;20075;-86
2022/01/12 09:50:09;;;;;;;25.02;13.60;;;2.40;99.90;;;;;;5037867;28;20486;-86
2022/01/12 09:52:35;;;;;;;27.15;14.55;;;2.30;99.90;;;;;;5039723;28;20041;-87
2022/01/12 09:55:01;;;;;;;22.27;13.05;;;2.40;99.90;;;;;;5036690;28;20489;-86
2022/01/12 09:57:30;;;;;;;23.38;14.13;;;2.40;99.90;;;;;;5037333;28;20504;-86
2022/01/12 09:59:56;;;;;;;24.58;14.55;;;2.50;99.90;;;;;;5040426;28;20410;-86
2022/01/12 10:02:22;;;;;;;24.73;13.98;;;2.60;99.90;;;;;;5034340;28;20109;-86
2022/01/12 10:04:58;;;;;;;24.63;14.88;;;2.60;99.90;;;;;;5036096;28;20032;-87
2022/01/12 10:07:25;;;;;;;27.10;15.05;;;2.60;99.90;;;;;;5036563;28;20049;-86
2022/01/12 10:09:54;;;;;;;23.50;13.52;;;2.50;99.90;;;;;;5034132;28;20026;-87
2022/01/12 10:12:21;;;;;;;27.63;14.77;;;2.60;99.90;;;;;;5037036;28;20041;-86
2022/01/12 10:14:52;;;;;;;25.02;14.57;;;2.70;99.90;;;;;;5036798;28;20026;-86
2022/01/12 10:17:19;;;;;;;24.67;13.02;;;2.70;99.90;;;;;;5033166;28;20352;-85
2022/01/12 10:19:45;;;;;;;26.23;14.23;;;2.80;99.90;;;;;;5034126;28;20036;-86
2022/01/12 10:22:15;;;;;;;24.20;14.25;;;2.90;99.90;;;;;;5037819;28;20013;-86
2022/01/12 10:24:43;;;;;;;32.17;16.38;;;2.90;99.90;;;;;;5036190;28;20021;-86
2022/01/12 10:27:20;;;;;;;28.75;14.75;;;2.90;99.90;;;;;;5033081;28;20100;-86
2022/01/12 10:29:55;;;;;;;43.50;18.98;;;2.90;99.90;;;;;;5035610;28;20129;-85
2022/01/12 10:32:21;;;;;;;48.83;20.77;;;3.00;99.90;;;;;;5034731;28;20116;-86
2022/01/12 10:34:49;;;;;;;36.13;17.58;;;3.10;99.90;;;;;;5035875;28;20068;-85
2022/01/12 10:37:17;;;;;;;35.33;17.42;;;3.20;99.90;;;;;;5032198;28;20572;-85
2022/01/12 10:39:45;;;;;;;34.28;18.00;;;3.20;99.90;;;;;;5032727;28;20022;-85
2022/01/12 10:42:13;;;;;;;34.58;17.33;;;3.20;99.90;;;;;;5034878;28;20098;-84
2022/01/12 10:44:48;;;;;;;28.83;15.25;;;3.30;99.90;;;;;;5032508;28;20026;-85
2022/01/12 10:47:20;;;;;;;31.02;16.63;;;3.30;99.90;;;;;;5030995;28;20033;-85
2022/01/12 10:49:55;;;;;;;32.67;16.10;;;3.40;99.90;;;;;;5042598;28;20048;-85
2022/01/12 10:52:22;;;;;;;24.00;15.43;;;3.50;99.90;;;;;;5043266;28;20096;-85
2022/01/12 10:54:47;;;;;;;30.08;16.27;;;3.50;99.90;;;;;;5041926;28;20033;-85
2022/01/12 10:57:28;;;;;;;27.50;15.77;;;3.50;99.90;;;;;;5039061;28;20014;-86
2022/01/12 11:00:03;;;;;;;22.17;13.98;;;3.50;99.90;;;;;;5039313;28;20109;-85
2022/01/12 11:02:29;;;;;;;25.58;14.82;;;3.50;99.90;;;;;;5040005;28;20761;-85
2022/01/12 11:04:57;;;;;;;23.52;14.27;;;3.60;99.90;;;;;;5035348;28;20017;-85
2022/01/12 11:07:25;;;;;;;25.13;14.30;;;3.60;99.90;;;;;;5034840;28;20021;-85
2022/01/12 11:09:56;;;;;;;23.42;13.25;;;3.60;99.90;;;;;;5038905;28;20022;-85
2022/01/12 11:12:23;;;;;;;21.83;13.18;;;3.60;99.90;;;;;;5031851;28;20024;-85
2022/01/12 11:14:49;;;;;;;23.17;13.52;;;3.50;99.90;;;;;;5035661;28;20028;-88
2022/01/12 11:17:16;;;;;;;24.02;13.43;;;3.60;99.90;;;;;;5030086;28;20025;-88
2022/01/12 11:19:55;;;;;;;26.95;14.02;;;3.60;99.90;;;;;;5030563;28;20028;-95
2022/01/12 11:22:27;;;;;;;22.27;12.80;;;3.60;99.90;;;;;;5031586;28;20505;-88
2022/01/12 11:24:54;;;;;;;25.95;14.98;;;3.60;99.90;;;;;;5032446;28;20262;-88
2022/01/12 11:27:23;;;;;;;25.48;14.85;;;3.70;99.90;;;;;;5031132;28;20041;-88
2022/01/12 11:29:49;;;;;;;25.92;14.55;;;3.70;99.90;;;;;;5032805;28;20108;-87
2022/01/12 11:32:22;;;;;;;27.85;15.48;;;3.90;99.90;;;;;;5032330;28;20480;-87
2022/01/12 11:35:03;;;;;;;26.60;15.10;;;3.90;99.90;;;;;;5033815;28;20079;-89
2022/01/12 11:37:29;;;;;;;28.73;14.40;;;3.90;99.90;;;;;;5036514;28;20053;-88
2022/01/12 11:40:07;;;;;;;29.50;15.15;;;4.00;99.90;;;;;;5035836;28;20017;-88
2022/01/12 11:42:36;;;;;;;24.88;14.48;;;4.10;99.90;;;;;;5032421;28;20501;-88
2022/01/12 11:45:03;;;;;;;28.63;15.88;;;4.20;99.90;;;;;;5033041;28;20525;-88
2022/01/12 11:47:31;;;;;;;26.05;15.00;;;4.20;99.90;;;;;;5034006;28;20429;-88
2022/01/12 11:49:57;;;;;;;28.80;16.38;;;4.30;99.90;;;;;;5029706;28;20084;-87
2022/01/12 11:52:26;;;;;;;25.42;15.38;;;4.20;99.90;;;;;;5030576;28;20041;-87
2022/01/12 11:55:01;;;;;;;28.52;16.75;;;4.30;99.90;;;;;;5036378;28;20017;-88
2022/01/12 11:57:35;;;;;;;32.75;18.52;;;4.30;99.90;;;;;;5034459;28;20021;-87
2022/01/12 12:00:09;;;;;;;29.10;16.50;;;4.50;99.90;;;;;;5029529;28;20021;-86
2022/01/12 12:02:41;;;;;;;29.80;17.02;;;4.60;99.90;;;;;;5033497;28;20440;-87
2022/01/12 12:05:15;;;;;;;31.52;19.17;;;4.70;99.90;;;;;;5029033;28;20018;-87
2022/01/12 12:07:46;;;;;;;;;;;4.70;99.90;;;;;;5030349;28;20032;-87
2022/01/12 12:10:17;;;;;;;26.63;15.45;;;4.90;99.90;;;;;;5032954;28;19954;-85
2022/01/12 12:12:43;;;;;;;52.45;28.48;;;4.90;99.90;;;;;;5031256;28;20069;-87
2022/01/12 12:15:11;;;;;;;50.47;28.17;;;5.00;99.90;;;;;;5030495;28;20053;-86
2022/01/12 12:17:40;;;;;;;42.72;24.92;;;5.00;99.90;;;;;;5030460;28;20116;-87
2022/01/12 12:20:08;;;;;;;35.83;20.30;;;5.00;99.90;;;;;;5023969;28;20075;-86
2022/01/12 12:22:38;;;;;;;32.08;17.85;;;5.00;99.90;;;;;;5031009;28;20079;-86
2022/01/12 12:25:06;;;;;;;35.22;20.08;;;5.10;99.90;;;;;;5030142;28;20025;-86
2022/01/12 12:27:33;;;;;;;35.85;21.77;;;5.20;99.90;;;;;;5030079;28;20493;-86
2022/01/12 12:29:59;;;;;;;34.28;19.13;;;5.30;99.90;;;;;;5028495;28;20107;-86
2022/01/12 12:32:53;;;;;;;31.50;17.90;;;5.40;99.90;;;;;;5029896;28;20040;-86
2022/01/12 12:35:27;;;;;;;30.42;17.20;;;5.50;99.90;;;;;;5029600;28;20025;-86
2022/01/12 12:37:56;;;;;;;26.70;15.55;;;5.60;99.90;;;;;;5028465;28;20144;-77
2022/01/12 12:40:35;;;;;;;25.80;14.88;;;5.70;99.90;;;;;;5029452;28;20305;-78
2022/01/12 12:43:04;;;;;;;27.50;16.15;;;5.70;99.90;;;;;;5034451;28;20163;-77
2022/01/12 12:45:35;;;;;;;28.48;16.25;;;5.70;99.90;;;;;;5036501;28;20018;-77
2022/01/12 12:48:06;;;;;;;27.80;15.65;;;5.80;99.90;;;;;;5035667;28;20040;-77
2022/01/12 12:50:32;;;;;;;25.27;16.02;;;5.80;99.90;;;;;;5022114;28;20116;-86
2022/01/12 12:52:58;;;;;;;25.42;14.90;;;5.80;99.90;;;;;;5029675;28;20118;-85
2022/01/12 12:55:25;;;;;;;26.40;16.25;;;5.90;99.90;;;;;;5030187;28;20498;-86
2022/01/12 12:57:54;;;;;;;24.20;15.38;;;6.00;99.90;;;;;;5023293;28;20017;-85
2022/01/12 13:00:24;;;;;;;22.27;13.85;;;5.90;99.90;;;;;;5021929;28;20029;-85
2022/01/12 13:02:52;;;;;;;21.48;13.18;;;6.00;99.90;;;;;;5031482;28;20033;-86
2022/01/12 13:05:27;;;;;;;20.88;12.93;;;6.00;99.90;;;;;;5029367;28;20470;-86
2022/01/12 13:07:53;;;;;;;23.70;14.48;;;6.00;99.90;;;;;;5029524;28;20068;-86
2022/01/12 13:10:25;;;;;;;20.27;12.70;;;6.00;99.90;;;;;;5030012;28;20451;-86
2022/01/12 13:12:56;;;;;;;22.77;13.90;;;6.00;99.90;;;;;;5029038;28;20482;-86
2022/01/12 13:15:32;;;;;;;25.48;14.35;;;6.00;99.90;;;;;;5028221;28;20387;-85
2022/01/12 13:18:21;;;;;;;23.73;14.57;;;6.10;99.90;;;;;;5029556;28;20036;-85
2022/01/12 13:21:09;;;;;;;25.55;15.35;;;6.10;99.90;;;;;;5029004;28;20036;-86
2022/01/12 13:23:44;;;;;;;27.20;14.98;;;6.00;99.90;;;;;;5024712;28;20030;-85
2022/01/12 13:26:12;;;;;;;24.08;15.25;;;6.00;99.90;;;;;;5029424;28;20033;-86
2022/01/12 13:28:40;;;;;;;23.27;14.73;;;6.10;99.90;;;;;;5029434;28;20032;-86
2022/01/12 13:31:11;;;;;;;22.25;13.93;;;6.10;99.90;;;;;;5029544;28;20072;-86
2022/01/12 13:33:40;;;;;;;26.35;15.65;;;6.10;99.90;;;;;;5030405;28;20513;-75
2022/01/12 13:36:27;;;;;;;25.83;15.63;;;6.10;99.90;;;;;;5036624;28;20095;-75
2022/01/12 13:38:57;;;;;;;24.73;15.20;;;6.10;99.90;;;;;;5036776;28;20103;-75
2022/01/12 13:41:27;;;;;;;26.35;15.77;;;6.10;99.90;;;;;;5032030;28;20072;-75
2022/01/12 13:43:58;;;;;;;27.33;16.15;;;6.10;99.90;;;;;;5023741;28;20014;-75
2022/01/12 13:46:33;;;;;;;22.25;14.32;;;6.20;99.90;;;;;;5028483;28;20071;-76
2022/01/12 13:51:43;;;;;;;28.95;15.52;;;6.10;99.90;;;;;;5029057;28;20117;-86
2022/01/12 13:54:13;;;;;;;25.38;14.90;;;6.20;99.90;;;;;;5028628;28;20095;-86
2022/01/12 13:56:45;;;;;;;24.65;15.30;;;6.20;99.90;;;;;;5025389;28;20049;-86
2022/01/12 13:59:13;;;;;;;23.92;14.90;;;6.20;99.90;;;;;;5028959;28;20468;-87
2022/01/12 14:01:41;;;;;;;27.77;16.45;;;6.30;99.90;;;;;;5029157;28;20096;-86
2022/01/12 14:04:12;;;;;;;23.27;15.07;;;6.30;99.90;;;;;;5028926;28;20036;-86
2022/01/12 14:06:41;;;;;;;26.05;15.43;;;6.40;99.90;;;;;;5029530;28;20100;-86
2022/01/12 14:09:22;;;;;;;24.20;15.48;;;6.40;99.90;;;;;;5032496;28;20033;-86